Kings Point — WDH9083 — position and weather

sailwx.info

Track history (hours):
 
Tides and Currents Weather Stations Pressure Air Temp Water Temp Dewpoint Dewpoint Depression Visibility Wind Speed Wind Dir Waves Ship Positions

Kings Point

Owner: Vane Line Bunkering, Inc., Philadelphia, PA. More information available from US FCC via Universal Licensing System and Coast Guard Vessel Documentation Center.

Last reported at 2018-Jul-23 00:00 UTC. Time now 2018-Jul-23 00:25 UTC.
Position N 40°40' W 074°00'.

Length 33 m; draft 4 m.

Type: Tug. MMSI: 338329000.

Date/timePositionNaut miles runAvg speedWind from/ knotsBaromVisibWave heightAir tempDewpointWater temp
2018-Jul-23 00:00N 40°40' W 074°00'0 0.0
2018-Jul-22 23:30N 40°40' W 074°00'4 8.8
2018-Jul-22 23:00N 40°39' W 074°06'3 6.4
2018-Jul-22 22:30N 40°41' W 074°09'1 1.2
2018-Jul-22 22:00N 40°41' W 074°10'0 0.0
2018-Jul-22 21:30N 40°41' W 074°10'2 4.9
2018-Jul-22 21:00N 40°39' W 074°09'2 3.9
2018-Jul-22 20:30N 40°39' W 074°06'3 5.9
2018-Jul-22 19:58N 40°40' W 074°03'0 0.2
2018-Jul-22 19:30N 40°40' W 074°03'2 3.2
2018-Jul-22 19:00N 40°40' W 074°05'0 0.0
2018-Jul-22 18:28N 40°40' W 074°05'0 0.0
2018-Jul-22 17:58N 40°40' W 074°05'0 0.0
2018-Jul-22 17:29N 40°40' W 074°05'1 2.7
2018-Jul-22 16:58N 40°40' W 074°03'1 1.3
2018-Jul-22 16:30N 40°40' W 074°03'2 3.3
2018-Jul-22 16:00N 40°40' W 074°05'2 1.5
2018-Jul-22 15:00N 40°40' W 074°03'4 7.6
2018-Jul-22 14:25N 40°38' W 074°09'2 5.2
2018-Jul-22 13:59N 40°41' W 074°09'1 1.3
2018-Jul-22 13:22N 40°41' W 074°09'0 0.1
2018-Jul-22 11:00N 40°41' W 074°10'0 0.0
2018-Jul-22 10:29N 40°41' W 074°10'0 0.3
2018-Jul-22 09:52N 40°41' W 074°09'0 0.2
2018-Jul-22 09:30N 40°41' W 074°09'0 0.0
2018-Jul-22 08:58N 40°41' W 074°09'0 0.7
2018-Jul-22 08:30N 40°41' W 074°09'2 3.5
2018-Jul-22 08:00N 40°39' W 074°09'2 3.5
2018-Jul-22 07:30N 40°39' W 074°06'1 1.3
2018-Jul-22 07:00N 40°39' W 074°07'0 0.0
2018-Jul-22 06:30N 40°39' W 074°07'0 0.0
2018-Jul-22 06:00N 40°39' W 074°07'0 0.0
2018-Jul-22 05:29N 40°39' W 074°07'0 0.0
2018-Jul-22 05:00N 40°39' W 074°07'0 0.0
2018-Jul-22 04:30N 40°39' W 074°07'0 0.0
2018-Jul-22 04:00N 40°39' W 074°07'0 0.0
2018-Jul-22 03:30N 40°39' W 074°07'0 0.0
2018-Jul-22 03:00N 40°39' W 074°07'0 0.6
2018-Jul-22 02:30N 40°39' W 074°07'0 0.5
2018-Jul-22 01:59N 40°39' W 074°07'2 3.1
2018-Jul-22 01:30N 40°39' W 074°09'2 3.5
2018-Jul-22 01:00N 40°38' W 074°11'1 0.4
2018-Jul-21 22:38N 40°38' W 074°12'0 0.0
2018-Jul-21 22:29N 40°38' W 074°12'0 0.0
2018-Jul-21 22:00N 40°38' W 074°12'0 0.0
2018-Jul-21 21:30N 40°38' W 074°12'0 0.0
2018-Jul-21 20:55N 40°38' W 074°12'0 0.0
2018-Jul-21 20:30N 40°38' W 074°12'2 2.5
2018-Jul-21 19:52N 40°39' W 074°10'3 8.5
2018-Jul-21 19:30N 40°39' W 074°06'4 7.4
2018-Jul-21 19:00N 40°41' W 074°02'4 7.9
2018-Jul-21 18:30N 40°45' W 074°01'1 0.3
2018-Jul-21 13:17N 40°46' W 074°00'1 4.3
2018-Jul-21 13:00N 40°45' W 074°01'3 6.6
2018-Jul-21 12:30N 40°42' W 074°02'3 5.9
2018-Jul-21 12:00N 40°40' W 074°04'1 1.6
2018-Jul-21 11:30N 40°39' W 074°05'1 1.8
2018-Jul-21 11:00N 40°40' W 074°05'0 0.0
2018-Jul-21 10:30N 40°40' W 074°05'0 0.0
2018-Jul-21 10:00N 40°40' W 074°05'0 0.0
2018-Jul-21 09:30N 40°40' W 074°05'0 0.0
2018-Jul-21 09:00N 40°40' W 074°05'0 0.0
2018-Jul-21 08:30N 40°40' W 074°05'0 0.0
2018-Jul-21 08:00N 40°40' W 074°05'1 1.9
2018-Jul-21 07:31N 40°40' W 074°04'2 4.9
2018-Jul-21 07:00N 40°39' W 074°07'1 2.7
2018-Jul-21 06:30N 40°39' W 074°09'3 4.6
2018-Jul-21 05:54N 40°41' W 074°10'0 0.0
2018-Jul-21 05:27N 40°41' W 074°10'0 0.0
2018-Jul-21 05:00N 40°41' W 074°10'0 0.0
2018-Jul-21 04:00N 40°41' W 074°10'1 1.7
2018-Jul-21 03:30N 40°41' W 074°09'0 0.1
2018-Jul-21 03:00N 40°41' W 074°09'3 5.8
2018-Jul-21 02:30N 40°39' W 074°06'0 0.6
2018-Jul-21 02:00N 40°39' W 074°05'3 5.1
2018-Jul-21 01:30N 40°39' W 074°09'1 1.8
2018-Jul-21 01:00N 40°40' W 074°08'3 5.2
2018-Jul-21 00:30N 40°39' W 074°06'4 8.0
2018-Jul-21 00:00N 40°40' W 074°00'0 0.1
2018-Jul-20 23:30N 40°40' W 074°01'0 0.6
2018-Jul-20 23:00N 40°40' W 074°00'0 0.2
2018-Jul-20 22:30N 40°40' W 074°00'0 0.0
2018-Jul-20 22:00N 40°40' W 074°00'0 0.0
2018-Jul-20 21:30N 40°40' W 074°00'0 0.5
2018-Jul-20 21:00N 40°40' W 074°00'0 0.0
2018-Jul-20 20:30N 40°40' W 074°00'2 3.0
2018-Jul-20 20:00N 40°42' W 074°00'2 3.5
2018-Jul-20 19:30N 40°40' W 074°01'0 0.7
2018-Jul-20 19:00N 40°40' W 074°00'0 0.0
2018-Jul-20 18:30N 40°40' W 074°00'0 0.0
2018-Jul-20 18:00N 40°40' W 074°00'0 0.0
2018-Jul-20 17:30N 40°40' W 074°00'0 0.0
2018-Jul-20 17:00N 40°40' W 074°00'1 2.3
2018-Jul-20 16:30N 40°39' W 074°02'3 6.5
2018-Jul-20 16:00N 40°39' W 074°06'1 1.7
2018-Jul-20 15:31N 40°39' W 074°07'0 0.0
2018-Jul-20 15:00N 40°39' W 074°07'1 1.8
2018-Jul-20 14:30N 40°39' W 074°06'0 0.0
2018-Jul-20 14:00N 40°39' W 074°06'0 0.0
2018-Jul-20 13:30N 40°39' W 074°06'0 0.0
2018-Jul-20 13:00N 40°39' W 074°06'0 0.0
2018-Jul-20 12:30N 40°39' W 074°06'0 0.0
2018-Jul-20 11:59N 40°39' W 074°06'1 2.3
2018-Jul-20 11:30N 40°38' W 074°07'0 0.0
2018-Jul-20 11:00N 40°38' W 074°07'0 0.0
2018-Jul-20 10:30N 40°38' W 074°07'0 0.0
2018-Jul-20 09:59N 40°38' W 074°07'0 0.0
2018-Jul-20 09:30N 40°38' W 074°07'0 0.0
2018-Jul-20 09:00N 40°38' W 074°07'0 0.0
2018-Jul-20 08:20N 40°38' W 074°07'0 0.0
2018-Jul-20 08:00N 40°38' W 074°07'0 0.8
2018-Jul-20 07:30N 40°39' W 074°07'0 0.8
2018-Jul-20 07:00N 40°38' W 074°07'0 0.0
2018-Jul-20 06:30N 40°38' W 074°07'0 0.0
2018-Jul-20 06:00N 40°38' W 074°07'0 0.0
2018-Jul-20 05:11N 40°38' W 074°07'0 2.7
2018-Jul-20 05:00N 40°39' W 074°07'3 6.7
2018-Jul-20 04:30N 40°40' W 074°03'1 2.9
2018-Jul-20 04:01N 40°39' W 074°04'3 6.9
2018-Jul-20 03:30N 40°39' W 074°09'2 4.7
2018-Jul-20 03:00N 40°41' W 074°09'0 0.0
2018-Jul-20 02:29N 40°41' W 074°09'0 0.0
2018-Jul-20 02:00N 40°41' W 074°09'0 0.0
2018-Jul-20 01:30N 40°41' W 074°09'0 0.0
2018-Jul-20 00:58N 40°41' W 074°09'0 0.0
2018-Jul-20 00:30N 40°41' W 074°09'0 0.0
2018-Jul-20 00:00N 40°41' W 074°09'0 0.0
2018-Jul-19 23:30N 40°41' W 074°09'1 1.3
2018-Jul-19 22:59N 40°41' W 074°09'0 0.0
2018-Jul-19 22:25N 40°41' W 074°09'0 0.0
2018-Jul-19 22:01N 40°41' W 074°09'3 5.3
2018-Jul-19 21:30N 40°39' W 074°10'1 1.2
2018-Jul-19 20:59N 40°39' W 074°11'3 5.9
2018-Jul-19 20:30N 40°39' W 074°08'3 5.9
2018-Jul-19 20:00N 40°40' W 074°04'0 0.1
2018-Jul-19 19:30N 40°40' W 074°04'0 0.0
2018-Jul-19 19:00N 40°40' W 074°04'0 0.0
2018-Jul-19 18:30N 40°40' W 074°04'0 0.1
2018-Jul-19 18:00N 40°40' W 074°04'2 3.0
2018-Jul-19 17:30N 40°39' W 074°02'0 0.1
2018-Jul-19 17:00N 40°39' W 074°02'0 0.1
2018-Jul-19 16:30N 40°39' W 074°02'0 0.2
2018-Jul-19 16:00N 40°39' W 074°02'0 0.1
2018-Jul-19 15:30N 40°39' W 074°02'0 0.0
2018-Jul-19 15:00N 40°39' W 074°02'0 0.0
2018-Jul-19 14:00N 40°39' W 074°02'0 0.0
2018-Jul-19 13:30N 40°39' W 074°02'0 0.0
2018-Jul-19 13:00N 40°39' W 074°02'0 0.0
2018-Jul-19 12:30N 40°39' W 074°02'0 0.0
2018-Jul-19 12:00N 40°39' W 074°02'0 0.0
2018-Jul-19 11:30N 40°39' W 074°02'0 0.0
2018-Jul-19 11:00N 40°39' W 074°02'0 0.0
2018-Jul-19 10:30N 40°39' W 074°02'0 0.0
2018-Jul-19 10:00N 40°39' W 074°02'0 0.0
2018-Jul-19 09:30N 40°39' W 074°02'0 0.0
2018-Jul-19 09:00N 40°39' W 074°02'0 0.0
2018-Jul-19 08:30N 40°39' W 074°02'0 0.1
2018-Jul-19 08:00N 40°39' W 074°02'0 0.2
2018-Jul-19 07:30N 40°39' W 074°02'0 0.2
2018-Jul-19 07:01N 40°39' W 074°02'0 0.1
2018-Jul-19 06:30N 40°39' W 074°02'0 0.1
2018-Jul-19 06:00N 40°39' W 074°02'0 0.2
2018-Jul-19 05:30N 40°39' W 074°02'1 2.2
2018-Jul-19 05:00N 40°39' W 074°04'2 4.6
2018-Jul-19 04:30N 40°39' W 074°07'2 4.0
2018-Jul-19 04:00N 40°39' W 074°10'1 2.8
2018-Jul-19 03:30N 40°39' W 074°11'0 0.7
2018-Jul-19 02:55N 40°38' W 074°12'4 8.2
2018-Jul-19 02:29N 40°39' W 074°07'0 0.4
2018-Jul-19 02:00N 40°39' W 074°07'2 3.3
2018-Jul-19 01:30N 40°40' W 074°09'0 0.0
2018-Jul-19 00:59N 40°40' W 074°09'0 0.0
2018-Jul-19 00:30N 40°40' W 074°09'0 0.0
2018-Jul-19 00:00N 40°40' W 074°09'1 2.5
2018-Jul-18 23:31N 40°39' W 074°09'3 5.2
2018-Jul-18 23:00N 40°39' W 074°05'0 0.0
2018-Jul-18 22:30N 40°39' W 074°05'2 4.2
2018-Jul-18 22:00N 40°40' W 074°03'4 7.5
2018-Jul-18 21:30N 40°39' W 074°07'3 4.7
2018-Jul-18 20:52N 40°39' W 074°11'0 0.0
2018-Jul-18 20:30N 40°39' W 074°11'2 3.3
2018-Jul-18 20:00N 40°39' W 074°09'4 7.8
2018-Jul-18 19:30N 40°39' W 074°04'3 6.2
2018-Jul-18 19:00N 40°40' W 074°00'0 0.0
2018-Jul-18 18:30N 40°40' W 074°00'0 0.0
2018-Jul-18 18:00N 40°40' W 074°00'0 0.0
2018-Jul-18 17:30N 40°40' W 074°00'0 0.0
2018-Jul-18 17:01N 40°40' W 074°00'0 0.0
2018-Jul-18 16:30N 40°40' W 074°00'0 0.0
2018-Jul-18 16:00N 40°40' W 074°00'0 0.0
2018-Jul-18 15:30N 40°40' W 074°00'0 0.0
2018-Jul-18 15:01N 40°40' W 074°00'1 1.4
2018-Jul-18 14:31N 40°40' W 074°01'1 1.1
2018-Jul-18 13:30N 40°39' W 074°02'2 3.7
2018-Jul-18 13:00N 40°40' W 074°00'0 0.0
2018-Jul-18 12:30N 40°40' W 074°00'0 0.0
2018-Jul-18 12:00N 40°40' W 074°00'0 0.0
2018-Jul-18 11:30N 40°40' W 074°00'0 0.0
2018-Jul-18 10:30N 40°40' W 074°00'0 0.2
2018-Jul-18 10:00N 40°40' W 074°00'0 0.0
2018-Jul-18 09:30N 40°40' W 074°00'0 0.0
2018-Jul-18 09:00N 40°40' W 074°00'0 0.5
2018-Jul-18 08:31N 40°40' W 074°00'2 3.1
2018-Jul-18 08:00N 40°39' W 074°02'0 0.0
2018-Jul-18 07:30N 40°39' W 074°02'0 0.0
2018-Jul-18 07:00N 40°39' W 074°02'0 0.1
2018-Jul-18 06:30N 40°39' W 074°02'0 0.2
2018-Jul-18 06:00N 40°39' W 074°02'0 0.1
2018-Jul-18 05:30N 40°40' W 074°02'0 0.0
2018-Jul-18 05:00N 40°40' W 074°02'0 0.1
2018-Jul-18 04:30N 40°39' W 074°02'0 0.1
2018-Jul-18 04:00N 40°40' W 074°02'0 0.0
2018-Jul-18 03:30N 40°40' W 074°02'0 0.0
2018-Jul-18 03:00N 40°40' W 074°02'0 0.0
2018-Jul-18 02:30N 40°40' W 074°02'0 0.1
2018-Jul-18 02:00N 40°40' W 074°02'2 3.8
2018-Jul-18 01:30N 40°41' W 074°01'3 6.7
2018-Jul-18 01:00N 40°44' W 073°58'2 0.1
2018-Jul-17 11:53N 40°46' W 073°57'2 6.3
2018-Jul-17 11:30N 40°43' W 073°58'3 5.6
2018-Jul-17 11:01N 40°41' W 074°01'3 5.9
2018-Jul-17 10:30N 40°39' W 074°03'3 5.4
2018-Jul-17 10:00N 40°39' W 074°07'0 0.1
2018-Jul-17 09:30N 40°39' W 074°07'0 0.0
2018-Jul-17 09:00N 40°39' W 074°07'0 0.0
2018-Jul-17 08:30N 40°39' W 074°07'4 7.4
2018-Jul-17 08:00N 40°38' W 074°12'0 0.0
2018-Jul-17 07:22N 40°38' W 074°12'3 8.7
2018-Jul-17 06:59N 40°39' W 074°07'2 4.9
2018-Jul-17 06:30N 40°40' W 074°05'0 0.0
2018-Jul-17 06:00N 40°40' W 074°05'0 0.0
2018-Jul-17 05:30N 40°40' W 074°05'0 0.0
2018-Jul-17 05:00N 40°40' W 074°05'0 0.0
2018-Jul-17 04:30N 40°40' W 074°05'0 0.0
2018-Jul-17 04:00N 40°40' W 074°05'0 0.0
2018-Jul-17 03:30N 40°40' W 074°05'0 0.0
2018-Jul-17 03:00N 40°40' W 074°05'0 0.0
2018-Jul-17 02:30N 40°40' W 074°05'0 0.0
2018-Jul-17 02:00N 40°40' W 074°05'0 0.0
2018-Jul-17 01:30N 40°40' W 074°05'0 0.0
2018-Jul-17 01:00N 40°40' W 074°05'0 0.0
2018-Jul-17 00:30N 40°40' W 074°05'4 3.7
2018-Jul-16 23:30N 40°40' W 074°00'0 0.0
2018-Jul-16 23:00N 40°40' W 074°00'2 4.5
2018-Jul-16 22:30N 40°40' W 074°03'2 4.4
2018-Jul-16 22:00N 40°40' W 074°00'0 0.0
2018-Jul-16 21:30N 40°40' W 074°00'0 0.0
2018-Jul-16 21:00N 40°40' W 074°00'0 0.0
2018-Jul-16 20:30N 40°40' W 074°00'0 0.0
2018-Jul-16 20:00N 40°40' W 074°00'0 0.0
2018-Jul-16 19:30N 40°40' W 074°00'0 0.0
2018-Jul-16 19:00N 40°40' W 074°00'0 0.0
2018-Jul-16 18:30N 40°40' W 074°00'1 2.8
2018-Jul-16 18:00N 40°41' W 074°00'3 6.3
2018-Jul-16 17:30N 40°39' W 074°03'3 6.2
2018-Jul-16 17:00N 40°39' W 074°07'0 0.0
2018-Jul-16 16:30N 40°39' W 074°07'0 0.0
2018-Jul-16 16:00N 40°39' W 074°07'0 0.0
2018-Jul-16 15:30N 40°39' W 074°07'2 3.1
2018-Jul-16 15:00N 40°39' W 074°05'2 4.1
2018-Jul-16 14:30N 40°40' W 074°02'0 0.4
2018-Jul-16 14:00N 40°40' W 074°02'0 0.0
2018-Jul-16 13:30N 40°40' W 074°02'0 0.0
2018-Jul-16 13:00N 40°40' W 074°02'0 0.2
2018-Jul-16 12:30N 40°40' W 074°02'0 0.2
2018-Jul-16 12:00N 40°40' W 074°02'0 0.0
2018-Jul-16 11:30N 40°40' W 074°02'0 0.0
2018-Jul-16 11:00N 40°40' W 074°02'0 0.2
2018-Jul-16 10:31N 40°40' W 074°02'5 9.0
2018-Jul-16 10:00N 40°44' W 074°01'3 0.1
2018-Jul-14 15:30N 40°47' W 073°60'4 8.5
2018-Jul-14 15:00N 40°43' W 074°01'4 8.0
2018-Jul-14 14:30N 40°39' W 074°04'6 6.4
2018-Jul-14 13:30N 40°37' W 074°12'1 2.6
2018-Jul-14 13:00N 40°36' W 074°12'0 0.0
2018-Jul-14 12:11N 40°36' W 074°12'0 0.6
2018-Jul-14 12:00N 40°36' W 074°12'1 2.8
2018-Jul-14 11:28N 40°38' W 074°12'0 0.0
2018-Jul-14 10:59N 40°38' W 074°12'0 0.0
2018-Jul-14 10:29N 40°38' W 074°12'0 0.0
2018-Jul-14 10:00N 40°38' W 074°12'0 0.0
2018-Jul-14 09:30N 40°38' W 074°12'0 0.0
2018-Jul-14 09:00N 40°38' W 074°12'0 0.0
2018-Jul-14 08:26N 40°38' W 074°12'1 3.0
2018-Jul-14 08:00N 40°39' W 074°11'4 8.5
2018-Jul-14 07:30N 40°39' W 074°05'0 0.0
2018-Jul-14 07:00N 40°39' W 074°05'0 0.0
2018-Jul-14 06:30N 40°39' W 074°05'0 0.0
2018-Jul-14 06:00N 40°39' W 074°05'0 0.0
2018-Jul-14 05:30N 40°39' W 074°05'4 8.4
2018-Jul-14 05:00N 40°40' W 074°00'0 0.6
2018-Jul-14 04:30N 40°40' W 074°00'4 7.1
2018-Jul-14 04:00N 40°39' W 074°05'3 6.1
2018-Jul-14 03:30N 40°41' W 074°08'0 0.1
2018-Jul-14 03:00N 40°41' W 074°08'0 0.3
2018-Jul-14 02:30N 40°40' W 074°08'0 0.0
2018-Jul-14 02:00N 40°40' W 074°08'0 0.0
2018-Jul-14 01:30N 40°40' W 074°08'0 0.0
2018-Jul-14 01:00N 40°40' W 074°08'0 0.0
2018-Jul-14 00:30N 40°40' W 074°08'0 0.0
2018-Jul-14 00:00N 40°40' W 074°08'1 1.4
2018-Jul-13 23:31N 40°40' W 074°08'5 5.3
2018-Jul-13 22:38N 40°36' W 074°12'2 2.5
2018-Jul-13 21:56N 40°38' W 074°12'2 4.9
2018-Jul-13 21:30N 40°39' W 074°09'5 9.8
2018-Jul-13 21:00N 40°39' W 074°03'2 3.5
2018-Jul-13 20:30N 40°40' W 074°01'2 4.1
2018-Jul-13 20:00N 40°39' W 074°03'1 2.9
2018-Jul-13 19:30N 40°39' W 074°05'2 4.2
2018-Jul-13 19:00N 40°39' W 074°08'2 3.4
2018-Jul-13 18:30N 40°40' W 074°08'0 0.1
2018-Jul-13 18:00N 40°40' W 074°08'0 0.1
2018-Jul-13 17:30N 40°40' W 074°09'0 0.0
2018-Jul-13 17:00N 40°40' W 074°09'0 0.0
2018-Jul-13 16:30N 40°40' W 074°09'2 3.9
2018-Jul-13 15:59N 40°39' W 074°06'4 8.9
2018-Jul-13 15:30N 40°40' W 074°01'0 0.6
2018-Jul-13 15:00N 40°40' W 074°01'0 0.1
2018-Jul-13 14:00N 40°40' W 074°00'0 0.0
2018-Jul-13 13:30N 40°40' W 074°00'0 0.0
2018-Jul-13 13:00N 40°40' W 074°00'3 6.2
2018-Jul-13 12:30N 40°39' W 074°04'1 2.9
2018-Jul-13 12:00N 40°39' W 074°06'3 5.0
2018-Jul-13 11:30N 40°40' W 074°03'1 1.5
2018-Jul-13 11:00N 40°40' W 074°02'0 0.1
2018-Jul-13 10:30N 40°40' W 074°02'0 0.2
2018-Jul-13 10:00N 40°40' W 074°02'0 0.1
2018-Jul-13 09:30N 40°40' W 074°02'0 0.1
2018-Jul-13 09:00N 40°40' W 074°02'0 0.1
2018-Jul-13 08:30N 40°40' W 074°02'0 0.8
2018-Jul-13 08:00N 40°40' W 074°03'2 3.7
2018-Jul-13 07:30N 40°39' W 074°05'0 0.4
2018-Jul-13 07:00N 40°39' W 074°05'0 0.3
2018-Jul-13 06:31N 40°39' W 074°05'0 0.3
2018-Jul-13 06:00N 40°39' W 074°05'1 1.8
2018-Jul-13 05:30N 40°40' W 074°04'1 1.7
2018-Jul-13 05:00N 40°40' W 074°05'0 0.0
2018-Jul-13 04:30N 40°40' W 074°05'0 0.0
2018-Jul-13 04:00N 40°40' W 074°05'0 0.0
2018-Jul-13 03:30N 40°40' W 074°05'0 0.0
2018-Jul-13 03:00N 40°40' W 074°05'0 0.0
2018-Jul-13 02:30N 40°40' W 074°05'0 0.0
2018-Jul-13 02:00N 40°40' W 074°05'0 0.0
2018-Jul-13 01:30N 40°40' W 074°05'0 0.0
2018-Jul-13 01:00N 40°40' W 074°05'1 2.3
2018-Jul-13 00:30N 40°39' W 074°05'  
Track history (hours):
 
Tides and Currents Weather Stations Pressure Air Temp Water Temp Dewpoint Dewpoint Depression Visibility Wind Speed Wind Dir Waves Ship Positions

Kings Point

Owner: Vane Line Bunkering, Inc., Philadelphia, PA. More information available from US FCC via Universal Licensing System and Coast Guard Vessel Documentation Center.

Last reported at 2018-Jul-23 00:00 UTC. Time now 2018-Jul-23 00:25 UTC.
Position N 40°40' W 074°00'.

Length 33 m; draft 4 m.

Type: Tug. MMSI: 338329000.

Date/timePositionNaut miles runAvg speedWind from/ knotsBaromVisibWave heightAir tempDewpointWater temp
2018-Jul-23 00:00N 40°40' W 074°00'0 0.0
2018-Jul-22 23:30N 40°40' W 074°00'4 8.8
2018-Jul-22 23:00N 40°39' W 074°06'3 6.4
2018-Jul-22 22:30N 40°41' W 074°09'1 1.2
2018-Jul-22 22:00N 40°41' W 074°10'0 0.0
2018-Jul-22 21:30N 40°41' W 074°10'2 4.9
2018-Jul-22 21:00N 40°39' W 074°09'2 3.9
2018-Jul-22 20:30N 40°39' W 074°06'3 5.9
2018-Jul-22 19:58N 40°40' W 074°03'0 0.2
2018-Jul-22 19:30N 40°40' W 074°03'2 3.2
2018-Jul-22 19:00N 40°40' W 074°05'0 0.0
2018-Jul-22 18:28N 40°40' W 074°05'0 0.0
2018-Jul-22 17:58N 40°40' W 074°05'0 0.0
2018-Jul-22 17:29N 40°40' W 074°05'1 2.7
2018-Jul-22 16:58N 40°40' W 074°03'1 1.3
2018-Jul-22 16:30N 40°40' W 074°03'2 3.3
2018-Jul-22 16:00N 40°40' W 074°05'2 1.5
2018-Jul-22 15:00N 40°40' W 074°03'4 7.6
2018-Jul-22 14:25N 40°38' W 074°09'2 5.2
2018-Jul-22 13:59N 40°41' W 074°09'1 1.3
2018-Jul-22 13:22N 40°41' W 074°09'0 0.1
2018-Jul-22 11:00N 40°41' W 074°10'0 0.0
2018-Jul-22 10:29N 40°41' W 074°10'0 0.3
2018-Jul-22 09:52N 40°41' W 074°09'0 0.2
2018-Jul-22 09:30N 40°41' W 074°09'0 0.0
2018-Jul-22 08:58N 40°41' W 074°09'0 0.7
2018-Jul-22 08:30N 40°41' W 074°09'2 3.5
2018-Jul-22 08:00N 40°39' W 074°09'2 3.5
2018-Jul-22 07:30N 40°39' W 074°06'1 1.3
2018-Jul-22 07:00N 40°39' W 074°07'0 0.0
2018-Jul-22 06:30N 40°39' W 074°07'0 0.0
2018-Jul-22 06:00N 40°39' W 074°07'0 0.0
2018-Jul-22 05:29N 40°39' W 074°07'0 0.0
2018-Jul-22 05:00N 40°39' W 074°07'0 0.0
2018-Jul-22 04:30N 40°39' W 074°07'0 0.0
2018-Jul-22 04:00N 40°39' W 074°07'0 0.0
2018-Jul-22 03:30N 40°39' W 074°07'0 0.0
2018-Jul-22 03:00N 40°39' W 074°07'0 0.6
2018-Jul-22 02:30N 40°39' W 074°07'0 0.5
2018-Jul-22 01:59N 40°39' W 074°07'2 3.1
2018-Jul-22 01:30N 40°39' W 074°09'2 3.5
2018-Jul-22 01:00N 40°38' W 074°11'1 0.4
2018-Jul-21 22:38N 40°38' W 074°12'0 0.0
2018-Jul-21 22:29N 40°38' W 074°12'0 0.0
2018-Jul-21 22:00N 40°38' W 074°12'0 0.0
2018-Jul-21 21:30N 40°38' W 074°12'0 0.0
2018-Jul-21 20:55N 40°38' W 074°12'0 0.0
2018-Jul-21 20:30N 40°38' W 074°12'2 2.5
2018-Jul-21 19:52N 40°39' W 074°10'3 8.5
2018-Jul-21 19:30N 40°39' W 074°06'4 7.4
2018-Jul-21 19:00N 40°41' W 074°02'4 7.9
2018-Jul-21 18:30N 40°45' W 074°01'1 0.3
2018-Jul-21 13:17N 40°46' W 074°00'1 4.3
2018-Jul-21 13:00N 40°45' W 074°01'3 6.6
2018-Jul-21 12:30N 40°42' W 074°02'3 5.9
2018-Jul-21 12:00N 40°40' W 074°04'1 1.6
2018-Jul-21 11:30N 40°39' W 074°05'1 1.8
2018-Jul-21 11:00N 40°40' W 074°05'0 0.0
2018-Jul-21 10:30N 40°40' W 074°05'0 0.0
2018-Jul-21 10:00N 40°40' W 074°05'0 0.0
2018-Jul-21 09:30N 40°40' W 074°05'0 0.0
2018-Jul-21 09:00N 40°40' W 074°05'0 0.0
2018-Jul-21 08:30N 40°40' W 074°05'0 0.0
2018-Jul-21 08:00N 40°40' W 074°05'1 1.9
2018-Jul-21 07:31N 40°40' W 074°04'2 4.9
2018-Jul-21 07:00N 40°39' W 074°07'1 2.7
2018-Jul-21 06:30N 40°39' W 074°09'3 4.6
2018-Jul-21 05:54N 40°41' W 074°10'0 0.0
2018-Jul-21 05:27N 40°41' W 074°10'0 0.0
2018-Jul-21 05:00N 40°41' W 074°10'0 0.0
2018-Jul-21 04:00N 40°41' W 074°10'1 1.7
2018-Jul-21 03:30N 40°41' W 074°09'0 0.1
2018-Jul-21 03:00N 40°41' W 074°09'3 5.8
2018-Jul-21 02:30N 40°39' W 074°06'0 0.6
2018-Jul-21 02:00N 40°39' W 074°05'3 5.1
2018-Jul-21 01:30N 40°39' W 074°09'1 1.8
2018-Jul-21 01:00N 40°40' W 074°08'3 5.2
2018-Jul-21 00:30N 40°39' W 074°06'4 8.0
2018-Jul-21 00:00N 40°40' W 074°00'0 0.1
2018-Jul-20 23:30N 40°40' W 074°01'0 0.6
2018-Jul-20 23:00N 40°40' W 074°00'0 0.2
2018-Jul-20 22:30N 40°40' W 074°00'0 0.0
2018-Jul-20 22:00N 40°40' W 074°00'0 0.0
2018-Jul-20 21:30N 40°40' W 074°00'0 0.5
2018-Jul-20 21:00N 40°40' W 074°00'0 0.0
2018-Jul-20 20:30N 40°40' W 074°00'2 3.0
2018-Jul-20 20:00N 40°42' W 074°00'2 3.5
2018-Jul-20 19:30N 40°40' W 074°01'0 0.7
2018-Jul-20 19:00N 40°40' W 074°00'0 0.0
2018-Jul-20 18:30N 40°40' W 074°00'0 0.0
2018-Jul-20 18:00N 40°40' W 074°00'0 0.0
2018-Jul-20 17:30N 40°40' W 074°00'0 0.0
2018-Jul-20 17:00N 40°40' W 074°00'1 2.3
2018-Jul-20 16:30N 40°39' W 074°02'3 6.5
2018-Jul-20 16:00N 40°39' W 074°06'1 1.7
2018-Jul-20 15:31N 40°39' W 074°07'0 0.0
2018-Jul-20 15:00N 40°39' W 074°07'1 1.8
2018-Jul-20 14:30N 40°39' W 074°06'0 0.0
2018-Jul-20 14:00N 40°39' W 074°06'0 0.0
2018-Jul-20 13:30N 40°39' W 074°06'0 0.0
2018-Jul-20 13:00N 40°39' W 074°06'0 0.0
2018-Jul-20 12:30N 40°39' W 074°06'0 0.0
2018-Jul-20 11:59N 40°39' W 074°06'1 2.3
2018-Jul-20 11:30N 40°38' W 074°07'0 0.0
2018-Jul-20 11:00N 40°38' W 074°07'0 0.0
2018-Jul-20 10:30N 40°38' W 074°07'0 0.0
2018-Jul-20 09:59N 40°38' W 074°07'0 0.0
2018-Jul-20 09:30N 40°38' W 074°07'0 0.0
2018-Jul-20 09:00N 40°38' W 074°07'0 0.0
2018-Jul-20 08:20N 40°38' W 074°07'0 0.0
2018-Jul-20 08:00N 40°38' W 074°07'0 0.8
2018-Jul-20 07:30N 40°39' W 074°07'0 0.8
2018-Jul-20 07:00N 40°38' W 074°07'0 0.0
2018-Jul-20 06:30N 40°38' W 074°07'0 0.0
2018-Jul-20 06:00N 40°38' W 074°07'0 0.0
2018-Jul-20 05:11N 40°38' W 074°07'0 2.7
2018-Jul-20 05:00N 40°39' W 074°07'3 6.7
2018-Jul-20 04:30N 40°40' W 074°03'1 2.9
2018-Jul-20 04:01N 40°39' W 074°04'3 6.9
2018-Jul-20 03:30N 40°39' W 074°09'2 4.7
2018-Jul-20 03:00N 40°41' W 074°09'0 0.0
2018-Jul-20 02:29N 40°41' W 074°09'0 0.0
2018-Jul-20 02:00N 40°41' W 074°09'0 0.0
2018-Jul-20 01:30N 40°41' W 074°09'0 0.0
2018-Jul-20 00:58N 40°41' W 074°09'0 0.0
2018-Jul-20 00:30N 40°41' W 074°09'0 0.0
2018-Jul-20 00:00N 40°41' W 074°09'0 0.0
2018-Jul-19 23:30N 40°41' W 074°09'1 1.3
2018-Jul-19 22:59N 40°41' W 074°09'0 0.0
2018-Jul-19 22:25N 40°41' W 074°09'0 0.0
2018-Jul-19 22:01N 40°41' W 074°09'3 5.3
2018-Jul-19 21:30N 40°39' W 074°10'1 1.2
2018-Jul-19 20:59N 40°39' W 074°11'3 5.9
2018-Jul-19 20:30N 40°39' W 074°08'3 5.9
2018-Jul-19 20:00N 40°40' W 074°04'0 0.1
2018-Jul-19 19:30N 40°40' W 074°04'0 0.0
2018-Jul-19 19:00N 40°40' W 074°04'0 0.0
2018-Jul-19 18:30N 40°40' W 074°04'0 0.1
2018-Jul-19 18:00N 40°40' W 074°04'2 3.0
2018-Jul-19 17:30N 40°39' W 074°02'0 0.1
2018-Jul-19 17:00N 40°39' W 074°02'0 0.1
2018-Jul-19 16:30N 40°39' W 074°02'0 0.2
2018-Jul-19 16:00N 40°39' W 074°02'0 0.1
2018-Jul-19 15:30N 40°39' W 074°02'0 0.0
2018-Jul-19 15:00N 40°39' W 074°02'0 0.0
2018-Jul-19 14:00N 40°39' W 074°02'0 0.0
2018-Jul-19 13:30N 40°39' W 074°02'0 0.0
2018-Jul-19 13:00N 40°39' W 074°02'0 0.0
2018-Jul-19 12:30N 40°39' W 074°02'0 0.0
2018-Jul-19 12:00N 40°39' W 074°02'0 0.0
2018-Jul-19 11:30N 40°39' W 074°02'0 0.0
2018-Jul-19 11:00N 40°39' W 074°02'0 0.0
2018-Jul-19 10:30N 40°39' W 074°02'0 0.0
2018-Jul-19 10:00N 40°39' W 074°02'0 0.0
2018-Jul-19 09:30N 40°39' W 074°02'0 0.0
2018-Jul-19 09:00N 40°39' W 074°02'0 0.0
2018-Jul-19 08:30N 40°39' W 074°02'0 0.1
2018-Jul-19 08:00N 40°39' W 074°02'0 0.2
2018-Jul-19 07:30N 40°39' W 074°02'0 0.2
2018-Jul-19 07:01N 40°39' W 074°02'0 0.1
2018-Jul-19 06:30N 40°39' W 074°02'0 0.1
2018-Jul-19 06:00N 40°39' W 074°02'0 0.2
2018-Jul-19 05:30N 40°39' W 074°02'1 2.2
2018-Jul-19 05:00N 40°39' W 074°04'2 4.6
2018-Jul-19 04:30N 40°39' W 074°07'2 4.0
2018-Jul-19 04:00N 40°39' W 074°10'1 2.8
2018-Jul-19 03:30N 40°39' W 074°11'0 0.7
2018-Jul-19 02:55N 40°38' W 074°12'4 8.2
2018-Jul-19 02:29N 40°39' W 074°07'0 0.4
2018-Jul-19 02:00N 40°39' W 074°07'2 3.3
2018-Jul-19 01:30N 40°40' W 074°09'0 0.0
2018-Jul-19 00:59N 40°40' W 074°09'0 0.0
2018-Jul-19 00:30N 40°40' W 074°09'0 0.0
2018-Jul-19 00:00N 40°40' W 074°09'1 2.5
2018-Jul-18 23:31N 40°39' W 074°09'3 5.2
2018-Jul-18 23:00N 40°39' W 074°05'0 0.0
2018-Jul-18 22:30N 40°39' W 074°05'2 4.2
2018-Jul-18 22:00N 40°40' W 074°03'4 7.5
2018-Jul-18 21:30N 40°39' W 074°07'3 4.7
2018-Jul-18 20:52N 40°39' W 074°11'0 0.0
2018-Jul-18 20:30N 40°39' W 074°11'2 3.3
2018-Jul-18 20:00N 40°39' W 074°09'4 7.8
2018-Jul-18 19:30N 40°39' W 074°04'3 6.2
2018-Jul-18 19:00N 40°40' W 074°00'0 0.0
2018-Jul-18 18:30N 40°40' W 074°00'0 0.0
2018-Jul-18 18:00N 40°40' W 074°00'0 0.0
2018-Jul-18 17:30N 40°40' W 074°00'0 0.0
2018-Jul-18 17:01N 40°40' W 074°00'0 0.0
2018-Jul-18 16:30N 40°40' W 074°00'0 0.0
2018-Jul-18 16:00N 40°40' W 074°00'0 0.0
2018-Jul-18 15:30N 40°40' W 074°00'0 0.0
2018-Jul-18 15:01N 40°40' W 074°00'1 1.4
2018-Jul-18 14:31N 40°40' W 074°01'1 1.1
2018-Jul-18 13:30N 40°39' W 074°02'2 3.7
2018-Jul-18 13:00N 40°40' W 074°00'0 0.0
2018-Jul-18 12:30N 40°40' W 074°00'0 0.0
2018-Jul-18 12:00N 40°40' W 074°00'0 0.0
2018-Jul-18 11:30N 40°40' W 074°00'0 0.0
2018-Jul-18 10:30N 40°40' W 074°00'0 0.2
2018-Jul-18 10:00N 40°40' W 074°00'0 0.0
2018-Jul-18 09:30N 40°40' W 074°00'0 0.0
2018-Jul-18 09:00N 40°40' W 074°00'0 0.5
2018-Jul-18 08:31N 40°40' W 074°00'2 3.1
2018-Jul-18 08:00N 40°39' W 074°02'0 0.0
2018-Jul-18 07:30N 40°39' W 074°02'0 0.0
2018-Jul-18 07:00N 40°39' W 074°02'0 0.1
2018-Jul-18 06:30N 40°39' W 074°02'0 0.2
2018-Jul-18 06:00N 40°39' W 074°02'0 0.1
2018-Jul-18 05:30N 40°40' W 074°02'0 0.0
2018-Jul-18 05:00N 40°40' W 074°02'0 0.1
2018-Jul-18 04:30N 40°39' W 074°02'0 0.1
2018-Jul-18 04:00N 40°40' W 074°02'0 0.0
2018-Jul-18 03:30N 40°40' W 074°02'0 0.0
2018-Jul-18 03:00N 40°40' W 074°02'0 0.0
2018-Jul-18 02:30N 40°40' W 074°02'0 0.1
2018-Jul-18 02:00N 40°40' W 074°02'2 3.8
2018-Jul-18 01:30N 40°41' W 074°01'3 6.7
2018-Jul-18 01:00N 40°44' W 073°58'2 0.1
2018-Jul-17 11:53N 40°46' W 073°57'2 6.3
2018-Jul-17 11:30N 40°43' W 073°58'3 5.6
2018-Jul-17 11:01N 40°41' W 074°01'3 5.9
2018-Jul-17 10:30N 40°39' W 074°03'3 5.4
2018-Jul-17 10:00N 40°39' W 074°07'0 0.1
2018-Jul-17 09:30N 40°39' W 074°07'0 0.0
2018-Jul-17 09:00N 40°39' W 074°07'0 0.0
2018-Jul-17 08:30N 40°39' W 074°07'4 7.4
2018-Jul-17 08:00N 40°38' W 074°12'0 0.0
2018-Jul-17 07:22N 40°38' W 074°12'3 8.7
2018-Jul-17 06:59N 40°39' W 074°07'2 4.9
2018-Jul-17 06:30N 40°40' W 074°05'0 0.0
2018-Jul-17 06:00N 40°40' W 074°05'0 0.0
2018-Jul-17 05:30N 40°40' W 074°05'0 0.0
2018-Jul-17 05:00N 40°40' W 074°05'0 0.0
2018-Jul-17 04:30N 40°40' W 074°05'0 0.0
2018-Jul-17 04:00N 40°40' W 074°05'0 0.0
2018-Jul-17 03:30N 40°40' W 074°05'0 0.0
2018-Jul-17 03:00N 40°40' W 074°05'0 0.0
2018-Jul-17 02:30N 40°40' W 074°05'0 0.0
2018-Jul-17 02:00N 40°40' W 074°05'0 0.0
2018-Jul-17 01:30N 40°40' W 074°05'0 0.0
2018-Jul-17 01:00N 40°40' W 074°05'0 0.0
2018-Jul-17 00:30N 40°40' W 074°05'4 3.7
2018-Jul-16 23:30N 40°40' W 074°00'0 0.0
2018-Jul-16 23:00N 40°40' W 074°00'2 4.5
2018-Jul-16 22:30N 40°40' W 074°03'2 4.4
2018-Jul-16 22:00N 40°40' W 074°00'0 0.0
2018-Jul-16 21:30N 40°40' W 074°00'0 0.0
2018-Jul-16 21:00N 40°40' W 074°00'0 0.0
2018-Jul-16 20:30N 40°40' W 074°00'0 0.0
2018-Jul-16 20:00N 40°40' W 074°00'0 0.0
2018-Jul-16 19:30N 40°40' W 074°00'0 0.0
2018-Jul-16 19:00N 40°40' W 074°00'0 0.0
2018-Jul-16 18:30N 40°40' W 074°00'1 2.8
2018-Jul-16 18:00N 40°41' W 074°00'3 6.3
2018-Jul-16 17:30N 40°39' W 074°03'3 6.2
2018-Jul-16 17:00N 40°39' W 074°07'0 0.0
2018-Jul-16 16:30N 40°39' W 074°07'0 0.0
2018-Jul-16 16:00N 40°39' W 074°07'0 0.0
2018-Jul-16 15:30N 40°39' W 074°07'2 3.1
2018-Jul-16 15:00N 40°39' W 074°05'2 4.1
2018-Jul-16 14:30N 40°40' W 074°02'0 0.4
2018-Jul-16 14:00N 40°40' W 074°02'0 0.0
2018-Jul-16 13:30N 40°40' W 074°02'0 0.0
2018-Jul-16 13:00N 40°40' W 074°02'0 0.2
2018-Jul-16 12:30N 40°40' W 074°02'0 0.2
2018-Jul-16 12:00N 40°40' W 074°02'0 0.0
2018-Jul-16 11:30N 40°40' W 074°02'0 0.0
2018-Jul-16 11:00N 40°40' W 074°02'0 0.2
2018-Jul-16 10:31N 40°40' W 074°02'5 9.0
2018-Jul-16 10:00N 40°44' W 074°01'3 0.1
2018-Jul-14 15:30N 40°47' W 073°60'4 8.5
2018-Jul-14 15:00N 40°43' W 074°01'4 8.0
2018-Jul-14 14:30N 40°39' W 074°04'6 6.4
2018-Jul-14 13:30N 40°37' W 074°12'1 2.6
2018-Jul-14 13:00N 40°36' W 074°12'0 0.0
2018-Jul-14 12:11N 40°36' W 074°12'0 0.6
2018-Jul-14 12:00N 40°36' W 074°12'1 2.8
2018-Jul-14 11:28N 40°38' W 074°12'0 0.0
2018-Jul-14 10:59N 40°38' W 074°12'0 0.0
2018-Jul-14 10:29N 40°38' W 074°12'0 0.0
2018-Jul-14 10:00N 40°38' W 074°12'0 0.0
2018-Jul-14 09:30N 40°38' W 074°12'0 0.0
2018-Jul-14 09:00N 40°38' W 074°12'0 0.0
2018-Jul-14 08:26N 40°38' W 074°12'1 3.0
2018-Jul-14 08:00N 40°39' W 074°11'4 8.5
2018-Jul-14 07:30N 40°39' W 074°05'0 0.0
2018-Jul-14 07:00N 40°39' W 074°05'0 0.0
2018-Jul-14 06:30N 40°39' W 074°05'0 0.0
2018-Jul-14 06:00N 40°39' W 074°05'0 0.0
2018-Jul-14 05:30N 40°39' W 074°05'4 8.4
2018-Jul-14 05:00N 40°40' W 074°00'0 0.6
2018-Jul-14 04:30N 40°40' W 074°00'4 7.1
2018-Jul-14 04:00N 40°39' W 074°05'3 6.1
2018-Jul-14 03:30N 40°41' W 074°08'0 0.1
2018-Jul-14 03:00N 40°41' W 074°08'0 0.3
2018-Jul-14 02:30N 40°40' W 074°08'0 0.0
2018-Jul-14 02:00N 40°40' W 074°08'0 0.0
2018-Jul-14 01:30N 40°40' W 074°08'0 0.0
2018-Jul-14 01:00N 40°40' W 074°08'0 0.0
2018-Jul-14 00:30N 40°40' W 074°08'0 0.0
2018-Jul-14 00:00N 40°40' W 074°08'1 1.4
2018-Jul-13 23:31N 40°40' W 074°08'5 5.3
2018-Jul-13 22:38N 40°36' W 074°12'2 2.5
2018-Jul-13 21:56N 40°38' W 074°12'2 4.9
2018-Jul-13 21:30N 40°39' W 074°09'5 9.8
2018-Jul-13 21:00N 40°39' W 074°03'2 3.5
2018-Jul-13 20:30N 40°40' W 074°01'2 4.1
2018-Jul-13 20:00N 40°39' W 074°03'1 2.9
2018-Jul-13 19:30N 40°39' W 074°05'2 4.2
2018-Jul-13 19:00N 40°39' W 074°08'2 3.4
2018-Jul-13 18:30N 40°40' W 074°08'0 0.1
2018-Jul-13 18:00N 40°40' W 074°08'0 0.1
2018-Jul-13 17:30N 40°40' W 074°09'0 0.0
2018-Jul-13 17:00N 40°40' W 074°09'0 0.0
2018-Jul-13 16:30N 40°40' W 074°09'2 3.9
2018-Jul-13 15:59N 40°39' W 074°06'4 8.9
2018-Jul-13 15:30N 40°40' W 074°01'0 0.6
2018-Jul-13 15:00N 40°40' W 074°01'0 0.1
2018-Jul-13 14:00N 40°40' W 074°00'0 0.0
2018-Jul-13 13:30N 40°40' W 074°00'0 0.0
2018-Jul-13 13:00N 40°40' W 074°00'3 6.2
2018-Jul-13 12:30N 40°39' W 074°04'1 2.9
2018-Jul-13 12:00N 40°39' W 074°06'3 5.0
2018-Jul-13 11:30N 40°40' W 074°03'1 1.5
2018-Jul-13 11:00N 40°40' W 074°02'0 0.1
2018-Jul-13 10:30N 40°40' W 074°02'0 0.2
2018-Jul-13 10:00N 40°40' W 074°02'0 0.1
2018-Jul-13 09:30N 40°40' W 074°02'0 0.1
2018-Jul-13 09:00N 40°40' W 074°02'0 0.1
2018-Jul-13 08:30N 40°40' W 074°02'0 0.8
2018-Jul-13 08:00N 40°40' W 074°03'2 3.7
2018-Jul-13 07:30N 40°39' W 074°05'0 0.4
2018-Jul-13 07:00N 40°39' W 074°05'0 0.3
2018-Jul-13 06:31N 40°39' W 074°05'0 0.3
2018-Jul-13 06:00N 40°39' W 074°05'1 1.8
2018-Jul-13 05:30N 40°40' W 074°04'1 1.7
2018-Jul-13 05:00N 40°40' W 074°05'0 0.0
2018-Jul-13 04:30N 40°40' W 074°05'0 0.0
2018-Jul-13 04:00N 40°40' W 074°05'0 0.0
2018-Jul-13 03:30N 40°40' W 074°05'0 0.0
2018-Jul-13 03:00N 40°40' W 074°05'0 0.0
2018-Jul-13 02:30N 40°40' W 074°05'0 0.0
2018-Jul-13 02:00N 40°40' W 074°05'0 0.0
2018-Jul-13 01:30N 40°40' W 074°05'0 0.0
2018-Jul-13 01:00N 40°40' W 074°05'1 2.3
2018-Jul-13 00:30N 40°39' W 074°05'  

Dump ship's entire track history